Time;durP1;ratioP1;P1;durP2;ratioP2;P2;SDS_P1;SDS_P2;PMS_P1;PMS_P2;Temp;Humidity;BMP_temperature;BMP_pressure;BME280_temperature;BME280_humidity;BME280_pressure;Samples;Min_cycle;Max_cycle;Signal;HPM_P1;HPM_P2
2022/12/13 00:02:00;;;;;;;42.70;21.02;;;;;;;;;;5001912;28;20420;-42
2022/12/13 00:04:26;;;;;;;30.17;17.23;;;;;;;;;;5008187;28;20176;-42
2022/12/13 00:06:52;;;;;;;34.50;19.83;;;;;;;;;;5002826;28;20433;-42
2022/12/13 00:09:19;;;;;;;36.25;18.20;;;;;;;;;;5004993;28;20338;-42
2022/12/13 00:11:45;;;;;;;37.15;18.42;;;;;;;;;;5000999;28;20276;-42
2022/12/13 00:14:12;;;;;;;33.85;18.63;;;;;;;;;;5000445;28;20185;-42
2022/12/13 00:16:39;;;;;;;37.60;18.25;;;;;;;;;;5001849;28;20208;-42
2022/12/13 00:19:05;;;;;;;33.55;17.83;;;;;;;;;;5001844;28;20536;-42
2022/12/13 00:21:32;;;;;;;36.13;18.35;;;;;;;;;;5001633;28;20240;-42
2022/12/13 00:23:59;;;;;;;38.72;20.45;;;;;;;;;;5006951;28;20654;-42
2022/12/13 00:26:26;;;;;;;35.10;17.00;;;;;;;;;;5003808;28;20204;-42
2022/12/13 00:28:53;;;;;;;36.08;18.73;;;;;;;;;;4997597;28;20264;-42
2022/12/13 00:31:20;;;;;;;33.45;17.92;;;;;;;;;;5001417;28;20199;-43
2022/12/13 00:33:46;;;;;;;32.45;18.25;;;;;;;;;;5002442;28;20528;-42
2022/12/13 00:36:12;;;;;;;36.97;19.07;;;;;;;;;;5001030;28;20200;-42
2022/12/13 00:38:38;;;;;;;37.45;20.65;;;;;;;;;;5001630;28;20410;-42
2022/12/13 00:41:15;;;;;;;38.43;19.30;;;;;;;;;;5002010;28;20181;-42
2022/12/13 00:43:41;;;;;;;46.67;21.92;;;;;;;;;;5003061;28;20498;-42
2022/12/13 00:46:12;;;;;;;39.20;20.40;;;;;;;;;;4997810;28;20741;-41
2022/12/13 00:48:38;;;;;;;35.45;18.55;;;;;;;;;;5004195;28;20215;-42
2022/12/13 00:51:08;;;;;;;34.33;17.27;;;;;;;;;;5002324;28;20211;-42
2022/12/13 00:53:34;;;;;;;36.13;18.63;;;;;;;;;;5000756;28;20828;-42
2022/12/13 00:56:00;;;;;;;36.15;20.80;;;;;;;;;;5002790;28;20704;-42
2022/12/13 00:58:26;;;;;;;29.43;16.20;;;;;;;;;;5001022;28;20177;-42
2022/12/13 01:00:52;;;;;;;39.10;19.10;;;;;;;;;;5001587;28;20416;-42
2022/12/13 01:03:24;;;;;;;33.03;19.07;;;;;;;;;;5000934;28;20440;-42
2022/12/13 01:05:50;;;;;;;35.08;18.90;;;;;;;;;;5003353;28;20435;-42
2022/12/13 01:08:16;;;;;;;37.08;20.33;;;;;;;;;;5002187;28;20561;-42
2022/12/13 01:10:43;;;;;;;37.83;18.55;;;;;;;;;;4998393;28;20188;-42
2022/12/13 01:13:09;;;;;;;34.47;20.08;;;;;;;;;;5000363;28;20188;-42
2022/12/13 01:15:39;;;;;;;32.28;18.98;;;;;;;;;;5003124;28;20200;-42
2022/12/13 01:18:05;;;;;;;39.78;17.80;;;;;;;;;;5004558;28;20169;-43
2022/12/13 01:20:31;;;;;;;39.10;20.33;;;;;;;;;;5005178;28;20595;-43
2022/12/13 01:22:57;;;;;;;36.60;20.57;;;;;;;;;;5001043;28;20365;-43
2022/12/13 01:25:23;;;;;;;34.37;17.80;;;;;;;;;;5001293;28;20431;-44
2022/12/13 01:27:49;;;;;;;42.77;21.83;;;;;;;;;;4996578;28;20894;-43
2022/12/13 01:30:15;;;;;;;40.80;20.87;;;;;;;;;;5003692;28;20519;-43
2022/12/13 01:32:41;;;;;;;36.15;20.15;;;;;;;;;;5001367;28;20419;-43
2022/12/13 01:35:07;;;;;;;37.20;19.30;;;;;;;;;;5003735;28;20520;-43
2022/12/13 01:37:35;;;;;;;32.28;18.92;;;;;;;;;;5000243;28;20432;-43
2022/12/13 01:40:02;;;;;;;41.35;20.73;;;;;;;;;;4997895;28;20558;-43
2022/12/13 01:42:28;;;;;;;29.05;19.25;;;;;;;;;;5003715;28;20307;-43
2022/12/13 01:45:20;;;;;;;41.33;19.03;;;;;;;;;;5000301;28;20622;-43
2022/12/13 01:47:48;;;;;;;34.13;18.60;;;;;;;;;;5001953;28;20486;-41
2022/12/13 01:50:19;;;;;;;34.33;18.85;;;;;;;;;;5001654;28;20582;-40
2022/12/13 01:52:46;;;;;;;38.65;19.95;;;;;;;;;;4998541;28;20170;-41
2022/12/13 01:55:13;;;;;;;36.33;18.67;;;;;;;;;;4999365;28;20200;-40
2022/12/13 01:57:41;;;;;;;34.72;19.92;;;;;;;;;;5000054;28;20326;-40
2022/12/13 02:00:07;;;;;;;36.25;18.98;;;;;;;;;;5003057;28;20176;-40
2022/12/13 02:02:33;;;;;;;36.50;19.50;;;;;;;;;;5000647;28;20666;-40
2022/12/13 02:05:03;;;;;;;43.13;18.13;;;;;;;;;;5004825;28;20669;-40
2022/12/13 02:07:30;;;;;;;32.75;19.30;;;;;;;;;;5003753;28;20200;-40
2022/12/13 02:09:58;;;;;;;43.22;20.50;;;;;;;;;;4996257;28;20172;-40
2022/12/13 02:12:26;;;;;;;40.35;19.25;;;;;;;;;;5010705;28;20255;-43
2022/12/13 02:14:52;;;;;;;35.22;17.40;;;;;;;;;;5001079;28;20539;-43
2022/12/13 02:17:39;;;;;;;39.10;19.33;;;;;;;;;;5001633;28;20188;-43
2022/12/13 02:20:23;;;;;;;37.85;18.63;;;;;;;;;;4994162;28;20172;-43
2022/12/13 02:23:08;;;;;;;40.38;20.00;;;;;;;;;;5001009;28;20173;-43
2022/12/13 02:25:39;;;;;;;30.30;18.08;;;;;;;;;;5006453;28;20688;-41
2022/12/13 02:28:24;;;;;;;43.53;20.38;;;;;;;;;;4992979;28;20599;-40
2022/12/13 02:31:00;;;;;;;36.42;17.50;;;;;;;;;;5005882;28;20187;-40
2022/12/13 02:33:38;;;;;;;40.47;20.17;;;;;;;;;;5000006;28;20639;-40
2022/12/13 02:36:22;;;;;;;36.67;18.55;;;;;;;;;;4997029;28;20227;-40
2022/12/13 02:38:52;;;;;;;35.92;18.88;;;;;;;;;;5001074;28;20215;-41
2022/12/13 02:41:22;;;;;;;38.72;18.95;;;;;;;;;;4997200;28;20181;-40
2022/12/13 02:44:02;;;;;;;38.75;18.70;;;;;;;;;;5001616;28;20185;-40
2022/12/13 02:46:29;;;;;;;32.42;17.55;;;;;;;;;;4998375;28;20235;-40
2022/12/13 02:48:56;;;;;;;40.58;20.30;;;;;;;;;;4997912;28;20192;-40
2022/12/13 02:51:23;;;;;;;42.25;20.05;;;;;;;;;;4997915;28;20192;-40
2022/12/13 02:53:49;;;;;;;29.48;20.02;;;;;;;;;;5001380;28;20223;-40
2022/12/13 02:56:15;;;;;;;41.40;20.25;;;;;;;;;;5002354;28;20278;-40
2022/12/13 02:58:45;;;;;;;37.05;19.05;;;;;;;;;;5001041;28;20184;-41
2022/12/13 03:01:37;;;;;;;34.30;17.90;;;;;;;;;;5000185;28;20231;-40
2022/12/13 03:04:06;;;;;;;35.30;19.88;;;;;;;;;;4998826;28;20193;-41
2022/12/13 03:06:34;;;;;;;37.05;19.10;;;;;;;;;;5001395;28;20209;-40
2022/12/13 03:09:16;;;;;;;37.13;19.45;;;;;;;;;;5003168;28;20200;-40
2022/12/13 03:14:32;;;;;;;41.25;19.85;;;;;;;;;;5006848;28;20242;-40
2022/12/13 03:17:00;;;;;;;43.95;20.83;;;;;;;;;;5000554;28;20200;-40
2022/12/13 03:19:26;;;;;;;34.65;20.15;;;;;;;;;;5000907;28;20169;-40
2022/12/13 03:21:52;;;;;;;43.93;17.30;;;;;;;;;;5006894;28;20549;-40
2022/12/13 03:24:19;;;;;;;41.47;18.63;;;;;;;;;;5006300;28;20501;-40
2022/12/13 03:26:46;;;;;;;36.38;18.17;;;;;;;;;;5005271;28;20435;-40
2022/12/13 03:29:12;;;;;;;38.35;17.95;;;;;;;;;;5002757;28;20181;-40
2022/12/13 03:31:38;;;;;;;35.13;18.10;;;;;;;;;;5004835;28;20283;-40
2022/12/13 03:34:04;;;;;;;30.70;18.30;;;;;;;;;;5000070;28;20407;-40
2022/12/13 03:36:30;;;;;;;34.47;18.03;;;;;;;;;;5005674;28;20211;-42
2022/12/13 03:38:56;;;;;;;43.20;18.67;;;;;;;;;;5004521;28;20470;-40
2022/12/13 03:41:30;;;;;;;38.58;17.92;;;;;;;;;;5004156;28;20399;-41
2022/12/13 03:43:56;;;;;;;31.13;15.05;;;;;;;;;;5005123;28;20172;-40
2022/12/13 03:46:21;;;;;;;36.73;18.33;;;;;;;;;;5004015;28;20262;-40
2022/12/13 03:48:47;;;;;;;30.60;17.53;;;;;;;;;;5004177;28;20415;-40
2022/12/13 03:51:13;;;;;;;30.50;16.47;;;;;;;;;;5003023;28;20455;-40
2022/12/13 03:53:39;;;;;;;33.87;18.43;;;;;;;;;;5005131;28;20423;-40
2022/12/13 03:56:07;;;;;;;32.70;17.03;;;;;;;;;;5001598;28;20516;-40
2022/12/13 03:58:34;;;;;;;38.50;18.85;;;;;;;;;;5000775;28;20423;-40
2022/12/13 04:00:59;;;;;;;36.40;17.25;;;;;;;;;;5003514;28;20263;-40
2022/12/13 04:03:25;;;;;;;25.37;16.10;;;;;;;;;;5002489;28;20249;-40
2022/12/13 04:05:51;;;;;;;35.57;17.57;;;;;;;;;;5004144;28;20445;-40
2022/12/13 04:08:17;;;;;;;40.90;18.17;;;;;;;;;;5005935;28;21000;-40
2022/12/13 04:10:43;;;;;;;35.10;18.03;;;;;;;;;;5004301;28;20420;-40
2022/12/13 04:15:56;;;;;;;31.58;19.00;;;;;;;;;;4998594;28;20474;-40
2022/12/13 04:18:21;;;;;;;36.85;18.23;;;;;;;;;;5004024;28;20172;-40
2022/12/13 04:20:47;;;;;;;41.95;18.90;;;;;;;;;;5002154;28;20646;-41
2022/12/13 04:23:13;;;;;;;34.28;18.15;;;;;;;;;;5004760;28;20169;-40
2022/12/13 04:25:40;;;;;;;40.80;18.30;;;;;;;;;;5001907;28;20201;-40
2022/12/13 04:28:06;;;;;;;39.33;16.98;;;;;;;;;;5003962;28;20459;-40
2022/12/13 04:30:33;;;;;;;46.72;20.95;;;;;;;;;;5000998;28;20192;-40
2022/12/13 04:32:59;;;;;;;37.15;19.58;;;;;;;;;;5004718;28;20208;-41
2022/12/13 04:35:25;;;;;;;37.03;19.25;;;;;;;;;;5003959;28;20682;-40
2022/12/13 04:37:51;;;;;;;33.83;17.42;;;;;;;;;;5003752;28;20213;-40
2022/12/13 04:40:18;;;;;;;34.40;17.75;;;;;;;;;;5002211;28;20634;-40
2022/12/13 04:42:44;;;;;;;37.85;17.48;;;;;;;;;;5002377;28;20231;-40
2022/12/13 04:45:14;;;;;;;36.95;18.10;;;;;;;;;;5001660;28;20184;-40
2022/12/13 04:47:40;;;;;;;36.70;17.00;;;;;;;;;;5001038;28;20191;-41
2022/12/13 04:50:06;;;;;;;29.27;15.47;;;;;;;;;;5001218;28;20639;-40
2022/12/13 04:52:32;;;;;;;33.85;16.73;;;;;;;;;;5005962;28;20486;-40
2022/12/13 04:54:58;;;;;;;52.83;16.57;;;;;;;;;;4999559;28;20606;-40
2022/12/13 04:57:24;;;;;;;27.23;15.23;;;;;;;;;;5004804;28;20995;-40
2022/12/13 04:59:50;;;;;;;30.83;16.03;;;;;;;;;;5001360;28;20878;-40
2022/12/13 05:02:16;;;;;;;35.10;16.90;;;;;;;;;;5001049;28;20751;-40
2022/12/13 05:04:42;;;;;;;34.70;17.23;;;;;;;;;;5001636;28;20462;-40
2022/12/13 05:07:08;;;;;;;28.63;16.73;;;;;;;;;;5004454;28;20412;-40
2022/12/13 05:09:34;;;;;;;37.27;20.00;;;;;;;;;;5004008;28;20484;-40
2022/12/13 05:12:00;;;;;;;28.02;16.98;;;;;;;;;;4996062;28;20418;-40
2022/12/13 05:14:26;;;;;;;29.25;16.75;;;;;;;;;;4997561;28;20177;-40
2022/12/13 05:16:53;;;;;;;33.40;15.63;;;;;;;;;;5002608;28;20215;-40
2022/12/13 05:19:19;;;;;;;28.52;15.80;;;;;;;;;;5003322;28;20403;-40
2022/12/13 05:21:45;;;;;;;33.00;16.83;;;;;;;;;;5001772;28;20275;-41
2022/12/13 05:24:11;;;;;;;32.53;17.67;;;;;;;;;;5002636;28;20654;-40
2022/12/13 05:26:37;;;;;;;42.60;18.00;;;;;;;;;;4994991;28;20961;-39
2022/12/13 05:29:03;;;;;;;38.37;18.17;;;;;;;;;;5003755;28;20928;-40
2022/12/13 05:31:29;;;;;;;34.03;16.53;;;;;;;;;;4997645;28;20932;-40
2022/12/13 05:33:55;;;;;;;33.03;16.93;;;;;;;;;;5003114;28;20420;-40
2022/12/13 05:36:24;;;;;;;39.30;17.33;;;;;;;;;;4998774;28;20567;-41
2022/12/13 05:38:50;;;;;;;28.80;16.35;;;;;;;;;;5002301;28;20502;-41
2022/12/13 05:41:17;;;;;;;48.50;21.17;;;;;;;;;;5000386;28;20635;-40
2022/12/13 05:43:42;;;;;;;32.45;17.52;;;;;;;;;;4999266;28;20183;-41
2022/12/13 05:46:08;;;;;;;38.03;19.50;;;;;;;;;;4999874;28;20201;-40
2022/12/13 05:48:34;;;;;;;33.97;18.10;;;;;;;;;;5005809;28;20423;-41
2022/12/13 05:51:00;;;;;;;35.73;18.10;;;;;;;;;;4997449;28;20819;-40
2022/12/13 05:53:26;;;;;;;39.00;18.90;;;;;;;;;;5000334;28;20443;-40
2022/12/13 05:55:52;;;;;;;29.63;17.80;;;;;;;;;;5000191;28;20248;-40
2022/12/13 05:58:18;;;;;;;33.23;17.10;;;;;;;;;;5000064;28;20406;-40
2022/12/13 06:00:44;;;;;;;34.20;18.10;;;;;;;;;;5001334;28;20404;-40
2022/12/13 06:03:10;;;;;;;32.60;17.65;;;;;;;;;;5001590;28;20759;-40
2022/12/13 06:05:36;;;;;;;32.40;15.48;;;;;;;;;;5003306;28;20192;-40
2022/12/13 06:08:02;;;;;;;27.60;17.60;;;;;;;;;;4994138;28;20184;-40
2022/12/13 06:10:29;;;;;;;34.53;17.38;;;;;;;;;;4996354;28;20246;-40
2022/12/13 06:12:55;;;;;;;34.03;17.90;;;;;;;;;;5000629;28;20181;-40
2022/12/13 06:15:20;;;;;;;30.80;16.37;;;;;;;;;;4999851;28;20195;-40
2022/12/13 06:17:46;;;;;;;33.17;16.17;;;;;;;;;;5003204;28;20456;-40
2022/12/13 06:20:12;;;;;;;27.63;15.63;;;;;;;;;;4999959;28;20400;-40
2022/12/13 06:22:38;;;;;;;35.27;16.90;;;;;;;;;;5001908;28;20437;-40
2022/12/13 06:25:04;;;;;;;32.97;19.33;;;;;;;;;;4994727;28;20514;-40
2022/12/13 06:27:30;;;;;;;26.70;16.27;;;;;;;;;;5002895;28;20411;-40
2022/12/13 06:29:57;;;;;;;30.13;15.32;;;;;;;;;;5000548;28;20207;-40
2022/12/13 06:32:23;;;;;;;30.80;17.30;;;;;;;;;;5000388;28;20256;-40
2022/12/13 06:34:49;;;;;;;33.90;17.67;;;;;;;;;;5001541;28;20774;-40
2022/12/13 06:37:15;;;;;;;28.40;17.43;;;;;;;;;;5001514;28;20521;-40
2022/12/13 06:39:41;;;;;;;34.55;17.08;;;;;;;;;;5002335;28;20453;-40
2022/12/13 06:42:13;;;;;;;35.75;16.23;;;;;;;;;;5003271;28;20591;-40
2022/12/13 06:44:40;;;;;;;28.67;15.32;;;;;;;;;;5006684;28;20180;-40
2022/12/13 06:47:06;;;;;;;35.05;17.67;;;;;;;;;;5003099;28;20735;-40
2022/12/13 06:49:33;;;;;;;32.28;19.75;;;;;;;;;;5006873;28;20419;-40
2022/12/13 06:51:59;;;;;;;29.45;16.10;;;;;;;;;;5003999;28;20227;-40
2022/12/13 06:54:24;;;;;;;30.93;17.10;;;;;;;;;;5003497;28;20204;-40
2022/12/13 06:56:50;;;;;;;31.00;16.40;;;;;;;;;;5004805;28;20479;-40
2022/12/13 06:59:16;;;;;;;28.67;16.15;;;;;;;;;;5006006;28;20439;-40
2022/12/13 07:01:42;;;;;;;21.77;14.60;;;;;;;;;;5005012;28;20173;-40
2022/12/13 07:04:11;;;;;;;26.47;14.37;;;;;;;;;;4996304;28;20420;-40
2022/12/13 07:06:38;;;;;;;30.70;15.00;;;;;;;;;;4993659;28;20929;-40
2022/12/13 07:09:07;;;;;;;34.00;16.20;;;;;;;;;;4999642;28;20180;-40
2022/12/13 07:11:33;;;;;;;26.35;15.35;;;;;;;;;;5004248;28;20255;-40
2022/12/13 07:13:59;;;;;;;40.85;19.05;;;;;;;;;;5006304;28;20318;-40
2022/12/13 07:16:25;;;;;;;33.85;16.83;;;;;;;;;;5002957;28;20291;-40
2022/12/13 07:18:55;;;;;;;30.80;17.48;;;;;;;;;;5005477;28;20203;-39
2022/12/13 07:21:25;;;;;;;28.85;15.63;;;;;;;;;;5001383;28;20235;-39
2022/12/13 07:23:51;;;;;;;32.50;16.05;;;;;;;;;;5009761;28;20172;-39
2022/12/13 07:26:17;;;;;;;31.80;17.73;;;;;;;;;;5004816;28;20704;-39
2022/12/13 07:28:43;;;;;;;32.78;18.42;;;;;;;;;;5004368;28;20417;-40
2022/12/13 07:31:09;;;;;;;30.48;18.65;;;;;;;;;;5003317;28;20170;-39
2022/12/13 07:33:36;;;;;;;34.50;15.73;;;;;;;;;;5002368;28;20647;-41
2022/12/13 07:36:28;;;;;;;32.50;17.98;;;;;;;;;;5002772;28;20243;-39
2022/12/13 07:38:55;;;;;;;31.70;16.80;;;;;;;;;;5003983;28;20221;-39
2022/12/13 07:41:22;;;;;;;28.23;16.02;;;;;;;;;;5005408;28;20181;-39
2022/12/13 07:43:48;;;;;;;36.45;16.60;;;;;;;;;;5002472;28;20207;-39
2022/12/13 07:46:14;;;;;;;31.67;17.42;;;;;;;;;;5001973;28;20217;-38
2022/12/13 07:48:40;;;;;;;29.70;17.37;;;;;;;;;;4997990;28;20631;-39
2022/12/13 07:51:09;;;;;;;33.22;17.20;;;;;;;;;;5005773;28;20864;-39
2022/12/13 07:53:36;;;;;;;31.42;16.65;;;;;;;;;;5002810;28;20214;-42
2022/12/13 07:56:03;;;;;;;24.85;16.00;;;;;;;;;;5005359;28;20223;-39
2022/12/13 07:58:29;;;;;;;33.33;16.58;;;;;;;;;;5002282;28;20176;-39
2022/12/13 08:00:58;;;;;;;32.63;14.95;;;;;;;;;;5002749;28;20815;-38
2022/12/13 08:03:27;;;;;;;33.53;15.55;;;;;;;;;;5001021;28;20176;-39
2022/12/13 08:06:03;;;;;;;30.77;16.40;;;;;;;;;;5002958;28;20250;-39
2022/12/13 08:08:30;;;;;;;29.48;16.50;;;;;;;;;;5002710;28;20180;-38
2022/12/13 08:10:59;;;;;;;28.98;15.43;;;;;;;;;;4992069;28;20693;-39
2022/12/13 08:13:25;;;;;;;31.17;15.30;;;;;;;;;;4993761;28;20180;-39
2022/12/13 08:15:56;;;;;;;26.92;19.00;;;;;;;;;;5002286;28;20216;-38
2022/12/13 08:18:22;;;;;;;36.33;18.70;;;;;;;;;;5001895;28;20630;-39
2022/12/13 08:20:48;;;;;;;25.40;14.17;;;;;;;;;;5004358;28;20240;-39
2022/12/13 08:23:14;;;;;;;32.65;16.00;;;;;;;;;;5005266;28;20518;-39
2022/12/13 08:25:40;;;;;;;33.53;16.92;;;;;;;;;;5004296;28;20192;-40
2022/12/13 08:28:06;;;;;;;29.00;16.53;;;;;;;;;;5000008;28;20180;-39
2022/12/13 08:30:32;;;;;;;31.20;17.90;;;;;;;;;;5001707;28;20426;-39
2022/12/13 08:32:59;;;;;;;28.47;17.10;;;;;;;;;;5004617;28;20736;-39
2022/12/13 08:35:28;;;;;;;41.35;18.83;;;;;;;;;;5003800;28;20943;-39
2022/12/13 08:37:54;;;;;;;35.40;19.20;;;;;;;;;;5003670;28;20576;-39
2022/12/13 08:40:20;;;;;;;33.35;16.98;;;;;;;;;;5003023;28;20173;-39
2022/12/13 08:42:46;;;;;;;34.67;17.35;;;;;;;;;;5000243;28;20177;-40
2022/12/13 08:45:12;;;;;;;32.83;18.77;;;;;;;;;;5004523;28;20196;-39
2022/12/13 08:47:38;;;;;;;29.30;17.27;;;;;;;;;;5000027;28;20420;-39
2022/12/13 08:50:04;;;;;;;41.70;18.48;;;;;;;;;;5004568;28;20693;-40
2022/12/13 08:52:31;;;;;;;39.00;18.55;;;;;;;;;;5000991;28;20181;-40
2022/12/13 08:54:57;;;;;;;37.25;20.20;;;;;;;;;;5003556;28;20172;-39
2022/12/13 08:57:23;;;;;;;38.33;20.20;;;;;;;;;;5000646;28;20205;-39
2022/12/13 08:59:49;;;;;;;29.10;17.50;;;;;;;;;;5001897;28;20413;-39
2022/12/13 09:02:15;;;;;;;33.35;16.50;;;;;;;;;;5003812;28;20172;-41
2022/12/13 09:04:41;;;;;;;36.22;16.75;;;;;;;;;;5005996;28;20176;-41
2022/12/13 09:07:07;;;;;;;33.08;18.05;;;;;;;;;;5001110;28;20255;-42
2022/12/13 09:09:33;;;;;;;31.20;16.17;;;;;;;;;;5001101;28;20590;-41
2022/12/13 09:11:59;;;;;;;25.57;14.90;;;;;;;;;;5006422;28;20404;-42
2022/12/13 09:14:26;;;;;;;30.70;16.23;;;;;;;;;;5000307;28;20412;-42
2022/12/13 09:16:52;;;;;;;27.05;15.02;;;;;;;;;;4986460;28;20463;-42
2022/12/13 09:19:18;;;;;;;29.10;13.70;;;;;;;;;;5000611;28;20232;-42
2022/12/13 09:21:44;;;;;;;27.00;16.00;;;;;;;;;;5004768;28;20486;-42
2022/12/13 09:24:10;;;;;;;37.27;15.10;;;;;;;;;;4999716;28;20792;-43
2022/12/13 09:26:35;;;;;;;25.53;14.80;;;;;;;;;;4996393;28;20432;-43
2022/12/13 09:29:01;;;;;;;26.57;14.50;;;;;;;;;;5008909;28;20415;-43
2022/12/13 09:31:27;;;;;;;23.63;13.57;;;;;;;;;;5002598;28;20419;-41
2022/12/13 09:33:53;;;;;;;27.70;15.20;;;;;;;;;;4997368;28;20431;-41
2022/12/13 09:36:20;;;;;;;24.30;14.37;;;;;;;;;;4991978;28;20465;-42
2022/12/13 09:38:47;;;;;;;26.90;15.77;;;;;;;;;;4992299;28;20450;-42
2022/12/13 09:41:18;;;;;;;25.17;16.10;;;;;;;;;;4992061;28;20418;-42
2022/12/13 09:43:45;;;;;;;27.30;14.53;;;;;;;;;;4992407;28;20415;-41
2022/12/13 09:46:22;;;;;;;22.60;14.53;;;;;;;;;;4992177;28;20821;-41
2022/12/13 09:48:48;;;;;;;32.33;15.10;;;;;;;;;;4992324;28;20426;-42
2022/12/13 09:51:14;;;;;;;26.33;15.97;;;;;;;;;;4992215;28;20848;-41
2022/12/13 09:53:40;;;;;;;25.27;14.97;;;;;;;;;;4992044;28;20487;-43
2022/12/13 09:56:10;;;;;;;25.33;14.03;;;;;;;;;;4991577;28;20619;-41
2022/12/13 09:58:36;;;;;;;23.60;14.40;;;;;;;;;;4991820;28;20942;-43
2022/12/13 10:01:04;;;;;;;28.60;15.93;;;;;;;;;;4991831;28;21065;-42
2022/12/13 10:03:30;;;;;;;21.57;14.43;;;;;;;;;;4991934;28;20407;-42
2022/12/13 10:06:01;;;;;;;21.20;14.97;;;;;;;;;;4992008;28;20524;-41
2022/12/13 10:08:33;;;;;;;22.83;14.70;;;;;;;;;;4991829;28;20888;-42
2022/12/13 10:10:59;;;;;;;24.30;14.00;;;;;;;;;;4992565;28;20891;-41
2022/12/13 10:13:30;;;;;;;23.00;15.03;;;;;;;;;;4991929;28;20416;-42
2022/12/13 10:16:22;;;;;;;23.90;13.63;;;;;;;;;;4994439;28;20556;-42
2022/12/13 10:18:48;;;;;;;32.83;12.50;;;;;;;;;;4992049;28;20912;-41
2022/12/13 10:21:18;;;;;;;20.20;12.83;;;;;;;;;;4996417;28;20418;-42
2022/12/13 10:23:44;;;;;;;22.00;13.40;;;;;;;;;;4996049;28;20492;-42
2022/12/13 10:26:11;;;;;;;26.47;13.30;;;;;;;;;;4995574;28;20536;-41
2022/12/13 10:28:38;;;;;;;20.57;12.07;;;;;;;;;;4995520;28;20444;-41
2022/12/13 10:31:05;;;;;;;24.53;12.30;;;;;;;;;;4995522;28;20826;-42
2022/12/13 10:33:32;;;;;;;19.10;13.00;;;;;;;;;;4995521;28;20920;-42
2022/12/13 10:36:08;;;;;;;18.80;11.63;;;;;;;;;;4995341;28;20546;-41
2022/12/13 10:38:36;;;;;;;20.13;12.93;;;;;;;;;;4995525;28;20751;-42
2022/12/13 10:41:02;;;;;;;21.30;12.70;;;;;;;;;;4995541;28;20411;-42
2022/12/13 10:43:32;;;;;;;16.63;10.97;;;;;;;;;;4995504;28;20411;-42
2022/12/13 10:46:02;;;;;;;19.17;11.63;;;;;;;;;;4994963;28;21032;-42
2022/12/13 10:48:39;;;;;;;17.57;10.80;;;;;;;;;;4995350;28;20444;-42
2022/12/13 10:51:14;;;;;;;24.03;11.83;;;;;;;;;;4995515;28;20423;-42
2022/12/13 10:53:44;;;;;;;21.93;12.77;;;;;;;;;;4994145;28;20474;-42
2022/12/13 10:56:10;;;;;;;22.47;13.00;;;;;;;;;;4994794;28;20846;-41
2022/12/13 10:58:41;;;;;;;23.23;14.50;;;;;;;;;;4995215;28;20416;-41
2022/12/13 11:01:19;;;;;;;24.30;13.13;;;;;;;;;;4995227;28;20430;-41
2022/12/13 11:04:02;;;;;;;21.90;12.57;;;;;;;;;;4995204;28;20407;-43
2022/12/13 11:06:39;;;;;;;21.37;12.87;;;;;;;;;;4975479;28;20468;-41
2022/12/13 11:09:25;;;;;;;19.20;12.67;;;;;;;;;;4988542;28;20651;-41
2022/12/13 11:11:52;;;;;;;26.70;13.87;;;;;;;;;;5006714;28;20890;-41
2022/12/13 11:14:20;;;;;;;18.43;12.40;;;;;;;;;;5006338;28;20930;-41
2022/12/13 11:16:50;;;;;;;16.83;11.43;;;;;;;;;;5004886;28;20492;-41
2022/12/13 11:19:18;;;;;;;23.03;13.20;;;;;;;;;;5001198;28;20416;-42
2022/12/13 11:21:47;;;;;;;26.90;14.13;;;;;;;;;;5004605;28;20409;-41
2022/12/13 11:24:18;;;;;;;17.77;13.10;;;;;;;;;;5004109;28;20414;-41
2022/12/13 11:26:45;;;;;;;20.43;12.67;;;;;;;;;;5002050;28;20428;-41
2022/12/13 11:29:35;;;;;;;19.30;12.53;;;;;;;;;;5004395;28;20422;-43
2022/12/13 11:32:15;;;;;;;20.20;12.97;;;;;;;;;;5004178;28;20528;-41
2022/12/13 11:35:00;;;;;;;21.57;11.83;;;;;;;;;;5007508;28;20412;-42
2022/12/13 11:37:36;;;;;;;21.63;11.40;;;;;;;;;;5005072;28;20957;-41
2022/12/13 11:40:06;;;;;;;19.03;12.93;;;;;;;;;;4997842;28;20459;-43
2022/12/13 11:42:40;;;;;;;21.00;12.00;;;;;;;;;;5002588;28;20422;-42
2022/12/13 11:45:19;;;;;;;24.37;12.17;;;;;;;;;;4999841;28;20462;-41
2022/12/13 11:47:57;;;;;;;26.47;13.60;;;;;;;;;;5003662;28;20959;-42
2022/12/13 11:50:28;;;;;;;16.73;12.20;;;;;;;;;;5002129;28;20416;-41
2022/12/13 11:52:55;;;;;;;17.40;10.77;;;;;;;;;;5008679;28;20444;-41
2022/12/13 11:55:33;;;;;;;23.30;12.77;;;;;;;;;;5004821;28;20437;-41
2022/12/13 11:58:01;;;;;;;22.07;12.30;;;;;;;;;;5000406;28;20421;-41
2022/12/13 12:00:27;;;;;;;24.80;13.80;;;;;;;;;;5004479;28;20941;-41
2022/12/13 12:02:58;;;;;;;18.40;11.87;;;;;;;;;;5011162;28;20414;-42
2022/12/13 12:05:34;;;;;;;19.83;12.03;;;;;;;;;;5004842;28;20438;-43
2022/12/13 12:08:05;;;;;;;20.53;12.40;;;;;;;;;;5005197;28;20484;-42
2022/12/13 12:10:35;;;;;;;25.83;13.30;;;;;;;;;;5002691;28;20426;-41
2022/12/13 12:13:09;;;;;;;23.50;13.90;;;;;;;;;;4999062;28;20444;-41
2022/12/13 12:15:39;;;;;;;20.83;12.35;;;;;;;;;;5003380;28;20444;-43
2022/12/13 12:18:08;;;;;;;17.37;12.27;;;;;;;;;;5001680;28;20177;-41
2022/12/13 12:20:34;;;;;;;20.13;11.10;;;;;;;;;;5007977;28;20457;-42
2022/12/13 12:23:12;;;;;;;16.67;11.43;;;;;;;;;;5001847;28;20501;-42
2022/12/13 12:26:00;;;;;;;18.60;12.48;;;;;;;;;;5003832;28;20786;-42
2022/12/13 12:28:41;;;;;;;15.18;11.32;;;;;;;;;;5000034;28;20532;-42
2022/12/13 12:31:17;;;;;;;19.65;11.23;;;;;;;;;;4994513;28;20216;-42
2022/12/13 12:33:43;;;;;;;19.90;10.90;;;;;;;;;;5002453;28;20774;-42
2022/12/13 12:36:10;;;;;;;19.40;9.93;;;;;;;;;;5004506;28;20283;-41
2022/12/13 12:38:55;;;;;;;25.73;10.85;;;;;;;;;;5000298;28;20484;-42
2022/12/13 12:41:24;;;;;;;16.25;9.15;;;;;;;;;;5001552;28;20176;-41
2022/12/13 12:44:13;;;;;;;16.98;9.50;;;;;;;;;;5003349;28;20638;-41
2022/12/13 12:46:44;;;;;;;15.20;10.50;;;;;;;;;;5002857;28;20281;-41
2022/12/13 12:49:21;;;;;;;15.00;9.40;;;;;;;;;;5001468;28;20177;-41
2022/12/13 12:52:13;;;;;;;14.50;9.07;;;;;;;;;;5006208;28;20180;-41
2022/12/13 12:54:45;;;;;;;14.60;8.38;;;;;;;;;;4997415;28;20205;-42
2022/12/13 12:57:25;;;;;;;11.80;8.20;;;;;;;;;;5003809;28;20727;-42
2022/12/13 13:00:01;;;;;;;12.45;7.63;;;;;;;;;;4996297;28;20830;-42
2022/12/13 13:02:43;;;;;;;17.58;11.05;;;;;;;;;;5004344;28;20164;-41
2022/12/13 13:05:14;;;;;;;16.08;9.35;;;;;;;;;;4991553;28;20561;-42
2022/12/13 13:07:45;;;;;;;19.52;11.25;;;;;;;;;;4999548;28;20703;-43
2022/12/13 13:10:11;;;;;;;19.40;12.52;;;;;;;;;;5001063;28;20532;-41
2022/12/13 13:12:39;;;;;;;20.63;12.95;;;;;;;;;;5000966;28;20260;-42
2022/12/13 13:15:41;;;;;;;21.23;12.10;;;;;;;;;;4998752;28;20528;-42
2022/12/13 13:18:27;;;;;;;39.92;11.77;;;;;;;;;;5015513;28;20195;-43
2022/12/13 13:21:11;;;;;;;16.55;9.90;;;;;;;;;;5002554;28;20223;-42
2022/12/13 13:23:39;;;;;;;13.88;9.25;;;;;;;;;;4999381;28;20242;-42
2022/12/13 13:26:05;;;;;;;12.82;8.63;;;;;;;;;;5004892;28;20242;-44
2022/12/13 13:28:31;;;;;;;21.03;10.40;;;;;;;;;;5004779;28;20177;-43
2022/12/13 13:31:07;;;;;;;17.93;10.03;;;;;;;;;;5001027;28;20488;-43
2022/12/13 13:33:44;;;;;;;13.55;10.55;;;;;;;;;;5005832;28;20414;-43
2022/12/13 13:36:30;;;;;;;17.98;9.95;;;;;;;;;;4998945;28;20688;-43
2022/12/13 13:38:56;;;;;;;14.43;9.43;;;;;;;;;;4997659;28;20184;-44
2022/12/13 13:41:38;;;;;;;18.00;9.15;;;;;;;;;;5000670;28;20234;-44
2022/12/13 13:44:24;;;;;;;20.80;8.48;;;;;;;;;;4993858;28;20249;-43
2022/12/13 13:47:08;;;;;;;16.90;10.30;;;;;;;;;;5001907;28;20197;-43
2022/12/13 13:49:34;;;;;;;17.33;9.82;;;;;;;;;;4999485;28;20236;-44
2022/12/13 13:52:08;;;;;;;17.40;9.77;;;;;;;;;;5002465;28;20172;-44
2022/12/13 13:54:44;;;;;;;15.52;9.65;;;;;;;;;;5000348;28;20411;-44
2022/12/13 13:57:22;;;;;;;22.02;9.90;;;;;;;;;;4993611;28;20207;-43
2022/12/13 13:59:54;;;;;;;21.27;9.18;;;;;;;;;;5001810;28;20192;-43
2022/12/13 14:02:26;;;;;;;19.33;9.38;;;;;;;;;;5003001;28;20701;-43
2022/12/13 14:04:55;;;;;;;20.58;10.95;;;;;;;;;;5002262;28;20191;-43
2022/12/13 14:07:41;;;;;;;13.60;9.60;;;;;;;;;;5003492;28;20207;-43
2022/12/13 14:10:25;;;;;;;17.25;9.85;;;;;;;;;;4989301;28;20179;-44
2022/12/13 14:13:00;;;;;;;20.27;10.52;;;;;;;;;;5007509;28;20180;-44
2022/12/13 14:15:45;;;;;;;16.23;9.30;;;;;;;;;;5004150;28;20200;-44
2022/12/13 14:18:20;;;;;;;19.65;10.77;;;;;;;;;;4993664;28;20800;-43
2022/12/13 14:20:54;;;;;;;13.60;9.20;;;;;;;;;;4997247;28;20242;-43
2022/12/13 14:23:20;;;;;;;17.90;10.40;;;;;;;;;;4997938;28;20174;-43
2022/12/13 14:26:02;;;;;;;15.03;9.07;;;;;;;;;;5005637;28;20568;-43
2022/12/13 14:28:46;;;;;;;16.77;9.20;;;;;;;;;;5001801;28;20403;-44
2022/12/13 14:31:17;;;;;;;33.08;10.00;;;;;;;;;;4995752;28;20198;-43
2022/12/13 14:33:45;;;;;;;15.02;9.05;;;;;;;;;;5001154;28;20263;-43
2022/12/13 14:36:14;;;;;;;15.10;9.70;;;;;;;;;;5000166;28;20292;-44
2022/12/13 14:38:40;;;;;;;17.30;9.48;;;;;;;;;;5000357;28;20177;-43